sensor_id;sensor_type;location;lat;lon;timestamp;temperature;humidity
63013;DHT22;62113;45.624;11.700;2023-06-04T00:00:06;23.70;64.00
63013;DHT22;62113;45.624;11.700;2023-06-04T00:02:32;23.70;63.60
63013;DHT22;62113;45.624;11.700;2023-06-04T00:04:58;23.70;63.70
63013;DHT22;62113;45.624;11.700;2023-06-04T00:07:23;23.70;64.10
63013;DHT22;62113;45.624;11.700;2023-06-04T00:09:49;23.70;64.40
63013;DHT22;62113;45.624;11.700;2023-06-04T00:12:14;23.70;64.00
63013;DHT22;62113;45.624;11.700;2023-06-04T00:14:40;23.70;64.00
63013;DHT22;62113;45.624;11.700;2023-06-04T00:17:07;23.70;63.80
63013;DHT22;62113;45.624;11.700;2023-06-04T00:19:32;23.70;64.00
63013;DHT22;62113;45.624;11.700;2023-06-04T00:21:59;23.70;63.90
63013;DHT22;62113;45.624;11.700;2023-06-04T00:24:24;23.70;64.20
63013;DHT22;62113;45.624;11.700;2023-06-04T00:26:50;23.70;63.90
63013;DHT22;62113;45.624;11.700;2023-06-04T00:29:16;23.70;64.10
63013;DHT22;62113;45.624;11.700;2023-06-04T00:31:41;23.70;64.10
63013;DHT22;62113;45.624;11.700;2023-06-04T00:34:07;23.60;64.00
63013;DHT22;62113;45.624;11.700;2023-06-04T00:36:32;23.60;64.20
63013;DHT22;62113;45.624;11.700;2023-06-04T00:38:58;23.70;63.90
63013;DHT22;62113;45.624;11.700;2023-06-04T00:41:23;23.70;63.90
63013;DHT22;62113;45.624;11.700;2023-06-04T00:43:48;23.70;63.80
63013;DHT22;62113;45.624;11.700;2023-06-04T00:46:27;23.70;63.50
63013;DHT22;62113;45.624;11.700;2023-06-04T00:48:53;23.70;63.50
63013;DHT22;62113;45.624;11.700;2023-06-04T00:51:20;23.70;63.40
63013;DHT22;62113;45.624;11.700;2023-06-04T00:53:51;23.70;63.40
63013;DHT22;62113;45.624;11.700;2023-06-04T00:56:17;23.70;63.20
63013;DHT22;62113;45.624;11.700;2023-06-04T00:58:43;23.70;63.10
63013;DHT22;62113;45.624;11.700;2023-06-04T01:01:12;23.70;63.10
63013;DHT22;62113;45.624;11.700;2023-06-04T01:03:41;23.70;62.90
63013;DHT22;62113;45.624;11.700;2023-06-04T01:06:12;23.70;62.70
63013;DHT22;62113;45.624;11.700;2023-06-04T01:08:38;23.70;62.60
63013;DHT22;62113;45.624;11.700;2023-06-04T01:11:08;23.70;62.70
63013;DHT22;62113;45.624;11.700;2023-06-04T01:13:33;23.70;62.50
63013;DHT22;62113;45.624;11.700;2023-06-04T01:15:59;23.70;62.70
63013;DHT22;62113;45.624;11.700;2023-06-04T01:18:28;23.70;62.50
63013;DHT22;62113;45.624;11.700;2023-06-04T01:21:00;23.70;62.50
63013;DHT22;62113;45.624;11.700;2023-06-04T01:25:58;23.70;62.70
63013;DHT22;62113;45.624;11.700;2023-06-04T01:28:28;23.70;62.70
63013;DHT22;62113;45.624;11.700;2023-06-04T01:30:55;23.60;62.50
63013;DHT22;62113;45.624;11.700;2023-06-04T01:33:22;23.70;62.60
63013;DHT22;62113;45.624;11.700;2023-06-04T01:35:47;23.70;62.80
63013;DHT22;62113;45.624;11.700;2023-06-04T01:38:13;23.70;63.10
63013;DHT22;62113;45.624;11.700;2023-06-04T01:40:39;23.60;62.80
63013;DHT22;62113;45.624;11.700;2023-06-04T01:43:06;23.60;63.10
63013;DHT22;62113;45.624;11.700;2023-06-04T01:45:31;23.60;62.90
63013;DHT22;62113;45.624;11.700;2023-06-04T01:47:57;23.60;62.80
63013;DHT22;62113;45.624;11.700;2023-06-04T01:50:22;23.60;62.90
63013;DHT22;62113;45.624;11.700;2023-06-04T01:52:48;23.60;62.80
63013;DHT22;62113;45.624;11.700;2023-06-04T01:55:14;23.60;62.80
63013;DHT22;62113;45.624;11.700;2023-06-04T01:57:40;23.60;63.00
63013;DHT22;62113;45.624;11.700;2023-06-04T02:00:06;23.60;62.70
63013;DHT22;62113;45.624;11.700;2023-06-04T02:02:35;23.60;62.90
63013;DHT22;62113;45.624;11.700;2023-06-04T02:05:01;23.60;62.80
63013;DHT22;62113;45.624;11.700;2023-06-04T02:07:27;23.60;63.00
63013;DHT22;62113;45.624;11.700;2023-06-04T02:09:52;23.60;63.10
63013;DHT22;62113;45.624;11.700;2023-06-04T02:12:18;23.50;62.80
63013;DHT22;62113;45.624;11.700;2023-06-04T02:14:43;23.50;62.80
63013;DHT22;62113;45.624;11.700;2023-06-04T02:17:10;23.50;63.10
63013;DHT22;62113;45.624;11.700;2023-06-04T02:19:47;23.50;63.10
63013;DHT22;62113;45.624;11.700;2023-06-04T02:22:19;23.50;62.90
63013;DHT22;62113;45.624;11.700;2023-06-04T02:24:45;23.50;62.80
63013;DHT22;62113;45.624;11.700;2023-06-04T02:27:11;23.50;62.80
63013;DHT22;62113;45.624;11.700;2023-06-04T02:29:38;23.60;63.10
63013;DHT22;62113;45.624;11.700;2023-06-04T02:32:03;23.50;63.00
63013;DHT22;62113;45.624;11.700;2023-06-04T02:34:29;23.50;62.80
63013;DHT22;62113;45.624;11.700;2023-06-04T02:36:55;23.50;62.70
63013;DHT22;62113;45.624;11.700;2023-06-04T02:39:20;23.50;62.80
63013;DHT22;62113;45.624;11.700;2023-06-04T02:41:46;23.50;62.90
63013;DHT22;62113;45.624;11.700;2023-06-04T02:44:11;23.50;62.80
63013;DHT22;62113;45.624;11.700;2023-06-04T02:46:37;23.50;62.90
63013;DHT22;62113;45.624;11.700;2023-06-04T02:49:03;23.50;62.80
63013;DHT22;62113;45.624;11.700;2023-06-04T02:51:29;23.50;63.00
63013;DHT22;62113;45.624;11.700;2023-06-04T02:53:55;23.50;62.90
63013;DHT22;62113;45.624;11.700;2023-06-04T02:56:20;23.50;63.00
63013;DHT22;62113;45.624;11.700;2023-06-04T02:58:50;23.50;63.20
63013;DHT22;62113;45.624;11.700;2023-06-04T03:01:19;23.50;63.20
63013;DHT22;62113;45.624;11.700;2023-06-04T03:03:46;23.40;63.20
63013;DHT22;62113;45.624;11.700;2023-06-04T03:06:11;23.40;63.20
63013;DHT22;62113;45.624;11.700;2023-06-04T03:08:39;23.40;63.50
63013;DHT22;62113;45.624;11.700;2023-06-04T03:11:05;23.40;63.40
63013;DHT22;62113;45.624;11.700;2023-06-04T03:13:31;23.40;63.40
63013;DHT22;62113;45.624;11.700;2023-06-04T03:15:56;23.40;63.40
63013;DHT22;62113;45.624;11.700;2023-06-04T03:18:25;23.40;63.60
63013;DHT22;62113;45.624;11.700;2023-06-04T03:20:51;23.40;63.50
63013;DHT22;62113;45.624;11.700;2023-06-04T03:23:18;23.40;63.50
63013;DHT22;62113;45.624;11.700;2023-06-04T03:25:43;23.40;63.80
63013;DHT22;62113;45.624;11.700;2023-06-04T03:28:09;23.40;63.80
63013;DHT22;62113;45.624;11.700;2023-06-04T03:30:35;23.30;63.90
63013;DHT22;62113;45.624;11.700;2023-06-04T03:33:00;23.30;64.40
63013;DHT22;62113;45.624;11.700;2023-06-04T03:35:26;23.20;64.40
63013;DHT22;62113;45.624;11.700;2023-06-04T03:37:51;23.20;64.70
63013;DHT22;62113;45.624;11.700;2023-06-04T03:40:17;23.20;64.30
63013;DHT22;62113;45.624;11.700;2023-06-04T03:42:42;23.20;64.40
63013;DHT22;62113;45.624;11.700;2023-06-04T03:45:08;23.20;64.40
63013;DHT22;62113;45.624;11.700;2023-06-04T03:47:33;23.20;64.40
63013;DHT22;62113;45.624;11.700;2023-06-04T03:49:59;23.20;64.40
63013;DHT22;62113;45.624;11.700;2023-06-04T03:52:24;23.20;64.40
63013;DHT22;62113;45.624;11.700;2023-06-04T03:54:50;23.20;64.40
63013;DHT22;62113;45.624;11.700;2023-06-04T03:57:15;23.20;64.50
63013;DHT22;62113;45.624;11.700;2023-06-04T03:59:41;23.20;64.50
63013;DHT22;62113;45.624;11.700;2023-06-04T04:02:06;23.30;64.70
63013;DHT22;62113;45.624;11.700;2023-06-04T04:04:32;23.20;64.50
63013;DHT22;62113;45.624;11.700;2023-06-04T04:07:00;23.30;64.30
63013;DHT22;62113;45.624;11.700;2023-06-04T04:09:26;23.30;64.30
63013;DHT22;62113;45.624;11.700;2023-06-04T04:11:51;23.30;64.20
63013;DHT22;62113;45.624;11.700;2023-06-04T04:14:17;23.30;64.20
63013;DHT22;62113;45.624;11.700;2023-06-04T04:16:42;23.30;64.30
63013;DHT22;62113;45.624;11.700;2023-06-04T04:19:08;23.20;64.30
63013;DHT22;62113;45.624;11.700;2023-06-04T04:21:34;23.20;64.60
63013;DHT22;62113;45.624;11.700;2023-06-04T04:24:02;23.20;64.30
63013;DHT22;62113;45.624;11.700;2023-06-04T04:26:28;23.20;64.40
63013;DHT22;62113;45.624;11.700;2023-06-04T04:28:54;23.20;64.30
63013;DHT22;62113;45.624;11.700;2023-06-04T04:31:23;23.20;64.30
63013;DHT22;62113;45.624;11.700;2023-06-04T04:33:49;23.20;64.50
63013;DHT22;62113;45.624;11.700;2023-06-04T04:36:16;23.10;64.50
63013;DHT22;62113;45.624;11.700;2023-06-04T04:38:44;23.10;64.40
63013;DHT22;62113;45.624;11.700;2023-06-04T04:41:10;23.20;64.20
63013;DHT22;62113;45.624;11.700;2023-06-04T04:43:37;23.20;64.00
63013;DHT22;62113;45.624;11.700;2023-06-04T04:46:04;23.20;63.80
63013;DHT22;62113;45.624;11.700;2023-06-04T04:48:30;23.20;63.60
63013;DHT22;62113;45.624;11.700;2023-06-04T04:50:56;23.20;63.50
63013;DHT22;62113;45.624;11.700;2023-06-04T04:53:21;23.20;63.50
63013;DHT22;62113;45.624;11.700;2023-06-04T04:55:47;23.20;63.60
63013;DHT22;62113;45.624;11.700;2023-06-04T04:58:12;23.20;63.70
63013;DHT22;62113;45.624;11.700;2023-06-04T05:00:38;23.20;63.50
63013;DHT22;62113;45.624;11.700;2023-06-04T05:03:04;23.20;63.50
63013;DHT22;62113;45.624;11.700;2023-06-04T05:05:29;23.20;63.50
63013;DHT22;62113;45.624;11.700;2023-06-04T05:07:55;23.20;63.50
63013;DHT22;62113;45.624;11.700;2023-06-04T05:10:20;23.20;63.40
63013;DHT22;62113;45.624;11.700;2023-06-04T05:12:59;23.20;63.60
63013;DHT22;62113;45.624;11.700;2023-06-04T05:15:26;23.20;63.50
63013;DHT22;62113;45.624;11.700;2023-06-04T05:17:51;23.20;63.60
63013;DHT22;62113;45.624;11.700;2023-06-04T05:20:21;23.20;63.70
63013;DHT22;62113;45.624;11.700;2023-06-04T05:22:47;23.20;63.50
63013;DHT22;62113;45.624;11.700;2023-06-04T05:25:13;23.20;63.60
63013;DHT22;62113;45.624;11.700;2023-06-04T05:27:39;23.20;63.60
63013;DHT22;62113;45.624;11.700;2023-06-04T05:30:05;23.20;63.60
63013;DHT22;62113;45.624;11.700;2023-06-04T05:32:33;23.30;63.80
63013;DHT22;62113;45.624;11.700;2023-06-04T05:34:59;23.30;63.70
63013;DHT22;62113;45.624;11.700;2023-06-04T05:37:25;23.30;63.50
63013;DHT22;62113;45.624;11.700;2023-06-04T05:39:52;23.30;63.70
63013;DHT22;62113;45.624;11.700;2023-06-04T05:42:18;23.40;63.40
63013;DHT22;62113;45.624;11.700;2023-06-04T05:44:43;23.40;63.50
63013;DHT22;62113;45.624;11.700;2023-06-04T05:47:09;23.50;63.40
63013;DHT22;62113;45.624;11.700;2023-06-04T05:49:34;23.50;63.50
63013;DHT22;62113;45.624;11.700;2023-06-04T05:52:00;23.50;63.20
63013;DHT22;62113;45.624;11.700;2023-06-04T05:54:26;23.60;63.30
63013;DHT22;62113;45.624;11.700;2023-06-04T05:56:52;23.60;63.10
63013;DHT22;62113;45.624;11.700;2023-06-04T05:59:17;23.60;63.10
63013;DHT22;62113;45.624;11.700;2023-06-04T06:01:43;23.70;63.10
63013;DHT22;62113;45.624;11.700;2023-06-04T06:04:08;23.60;63.50
63013;DHT22;62113;45.624;11.700;2023-06-04T06:06:34;23.60;63.70
63013;DHT22;62113;45.624;11.700;2023-06-04T06:09:00;23.60;63.70
63013;DHT22;62113;45.624;11.700;2023-06-04T06:11:25;23.60;63.70
63013;DHT22;62113;45.624;11.700;2023-06-04T06:13:52;23.60;64.20
63013;DHT22;62113;45.624;11.700;2023-06-04T06:16:17;23.60;64.10
63013;DHT22;62113;45.624;11.700;2023-06-04T06:18:43;23.60;64.20
63013;DHT22;62113;45.624;11.700;2023-06-04T06:21:09;23.60;64.00
63013;DHT22;62113;45.624;11.700;2023-06-04T06:23:34;23.60;64.00
63013;DHT22;62113;45.624;11.700;2023-06-04T06:26:01;23.60;64.00
63013;DHT22;62113;45.624;11.700;2023-06-04T06:28:27;23.70;63.90
63013;DHT22;62113;45.624;11.700;2023-06-04T06:30:52;23.70;63.80
63013;DHT22;62113;45.624;11.700;2023-06-04T06:33:18;23.70;64.10
63013;DHT22;62113;45.624;11.700;2023-06-04T06:35:47;23.70;63.90
63013;DHT22;62113;45.624;11.700;2023-06-04T06:38:12;23.70;64.10
63013;DHT22;62113;45.624;11.700;2023-06-04T06:40:38;23.80;64.10
63013;DHT22;62113;45.624;11.700;2023-06-04T06:43:03;23.90;64.30
63013;DHT22;62113;45.624;11.700;2023-06-04T06:45:29;23.90;63.90
63013;DHT22;62113;45.624;11.700;2023-06-04T06:47:54;24.00;64.00
63013;DHT22;62113;45.624;11.700;2023-06-04T06:50:20;24.10;64.10
63013;DHT22;62113;45.624;11.700;2023-06-04T06:52:45;24.10;64.00
63013;DHT22;62113;45.624;11.700;2023-06-04T06:55:11;24.20;63.70
63013;DHT22;62113;45.624;11.700;2023-06-04T06:57:36;24.20;63.50
63013;DHT22;62113;45.624;11.700;2023-06-04T07:00:02;24.20;63.60
63013;DHT22;62113;45.624;11.700;2023-06-04T07:02:28;24.30;63.40
63013;DHT22;62113;45.624;11.700;2023-06-04T07:04:54;24.30;63.70
63013;DHT22;62113;45.624;11.700;2023-06-04T07:07:20;24.30;63.70
63013;DHT22;62113;45.624;11.700;2023-06-04T07:09:45;24.30;63.50
63013;DHT22;62113;45.624;11.700;2023-06-04T07:12:11;24.30;63.30
63013;DHT22;62113;45.624;11.700;2023-06-04T07:14:36;24.30;63.60
63013;DHT22;62113;45.624;11.700;2023-06-04T07:17:02;24.30;63.40
63013;DHT22;62113;45.624;11.700;2023-06-04T07:19:27;24.30;63.60
63013;DHT22;62113;45.624;11.700;2023-06-04T07:21:54;24.40;63.20
63013;DHT22;62113;45.624;11.700;2023-06-04T07:24:19;24.40;63.20
63013;DHT22;62113;45.624;11.700;2023-06-04T07:26:45;24.40;63.30
63013;DHT22;62113;45.624;11.700;2023-06-04T07:29:11;24.50;63.50
63013;DHT22;62113;45.624;11.700;2023-06-04T07:31:36;24.50;63.40
63013;DHT22;62113;45.624;11.700;2023-06-04T07:34:02;24.50;63.10
63013;DHT22;62113;45.624;11.700;2023-06-04T07:36:27;24.60;63.20
63013;DHT22;62113;45.624;11.700;2023-06-04T07:38:53;24.70;63.70
63013;DHT22;62113;45.624;11.700;2023-06-04T07:41:19;24.70;62.90
63013;DHT22;62113;45.624;11.700;2023-06-04T07:43:45;24.70;63.00
63013;DHT22;62113;45.624;11.700;2023-06-04T07:46:10;24.80;62.90
63013;DHT22;62113;45.624;11.700;2023-06-04T07:48:36;24.80;62.70
63013;DHT22;62113;45.624;11.700;2023-06-04T07:51:02;24.90;62.70
63013;DHT22;62113;45.624;11.700;2023-06-04T07:53:28;25.10;62.60
63013;DHT22;62113;45.624;11.700;2023-06-04T07:55:54;25.30;62.20
63013;DHT22;62113;45.624;11.700;2023-06-04T07:58:20;25.50;61.90
63013;DHT22;62113;45.624;11.700;2023-06-04T08:00:45;25.60;61.90
63013;DHT22;62113;45.624;11.700;2023-06-04T08:03:11;25.80;60.90
63013;DHT22;62113;45.624;11.700;2023-06-04T08:05:37;25.90;60.10
63013;DHT22;62113;45.624;11.700;2023-06-04T08:08:03;26.00;59.80
63013;DHT22;62113;45.624;11.700;2023-06-04T08:10:29;26.10;59.40
63013;DHT22;62113;45.624;11.700;2023-06-04T08:12:54;26.10;58.80
63013;DHT22;62113;45.624;11.700;2023-06-04T08:15:20;26.20;58.70
63013;DHT22;62113;45.624;11.700;2023-06-04T08:17:45;26.20;58.60
63013;DHT22;62113;45.624;11.700;2023-06-04T08:20:11;26.20;58.50
63013;DHT22;62113;45.624;11.700;2023-06-04T08:22:37;26.30;58.30
63013;DHT22;62113;45.624;11.700;2023-06-04T08:25:02;26.30;58.30
63013;DHT22;62113;45.624;11.700;2023-06-04T08:27:30;26.30;57.60
63013;DHT22;62113;45.624;11.700;2023-06-04T08:29:56;26.50;57.70
63013;DHT22;62113;45.624;11.700;2023-06-04T08:32:23;26.60;57.60
63013;DHT22;62113;45.624;11.700;2023-06-04T08:34:48;26.80;54.90
63013;DHT22;62113;45.624;11.700;2023-06-04T08:37:14;27.00;55.40
63013;DHT22;62113;45.624;11.700;2023-06-04T08:39:39;27.20;55.10
63013;DHT22;62113;45.624;11.700;2023-06-04T08:42:06;27.20;54.40
63013;DHT22;62113;45.624;11.700;2023-06-04T08:44:32;27.20;52.70
63013;DHT22;62113;45.624;11.700;2023-06-04T08:47:01;27.10;52.60
63013;DHT22;62113;45.624;11.700;2023-06-04T08:49:27;27.00;53.10
63013;DHT22;62113;45.624;11.700;2023-06-04T08:51:55;26.90;52.00
63013;DHT22;62113;45.624;11.700;2023-06-04T08:54:21;26.80;53.50
63013;DHT22;62113;45.624;11.700;2023-06-04T08:56:47;26.70;52.80
63013;DHT22;62113;45.624;11.700;2023-06-04T08:59:14;26.70;53.70
63013;DHT22;62113;45.624;11.700;2023-06-04T09:01:40;26.70;54.00
63013;DHT22;62113;45.624;11.700;2023-06-04T09:04:10;26.70;53.50
63013;DHT22;62113;45.624;11.700;2023-06-04T09:06:35;26.80;53.30
63013;DHT22;62113;45.624;11.700;2023-06-04T09:09:03;26.90;53.20
63013;DHT22;62113;45.624;11.700;2023-06-04T09:11:33;26.90;51.40
63013;DHT22;62113;45.624;11.700;2023-06-04T09:13:59;27.00;52.40
63013;DHT22;62113;45.624;11.700;2023-06-04T09:16:26;26.80;52.70
63013;DHT22;62113;45.624;11.700;2023-06-04T09:18:51;26.70;52.80
63013;DHT22;62113;45.624;11.700;2023-06-04T09:21:18;26.50;53.70
63013;DHT22;62113;45.624;11.700;2023-06-04T09:23:45;26.40;53.40
63013;DHT22;62113;45.624;11.700;2023-06-04T09:26:11;26.40;54.80
63013;DHT22;62113;45.624;11.700;2023-06-04T09:28:44;26.20;54.30
63013;DHT22;62113;45.624;11.700;2023-06-04T09:31:19;25.80;52.00
63013;DHT22;62113;45.624;11.700;2023-06-04T09:33:48;25.60;56.70
63013;DHT22;62113;45.624;11.700;2023-06-04T09:36:14;25.50;55.20
63013;DHT22;62113;45.624;11.700;2023-06-04T09:38:40;25.70;55.40
63013;DHT22;62113;45.624;11.700;2023-06-04T09:41:12;25.80;55.70
63013;DHT22;62113;45.624;11.700;2023-06-04T09:43:38;26.10;55.20
63013;DHT22;62113;45.624;11.700;2023-06-04T09:48:36;26.20;53.60
63013;DHT22;62113;45.624;11.700;2023-06-04T09:53:36;26.20;53.80
63013;DHT22;62113;45.624;11.700;2023-06-04T09:56:02;26.30;53.00
63013;DHT22;62113;45.624;11.700;2023-06-04T09:58:32;26.30;53.90
63013;DHT22;62113;45.624;11.700;2023-06-04T10:01:01;26.30;54.20
63013;DHT22;62113;45.624;11.700;2023-06-04T10:03:30;26.30;54.00
63013;DHT22;62113;45.624;11.700;2023-06-04T10:05:56;26.40;53.70
63013;DHT22;62113;45.624;11.700;2023-06-04T10:08:22;26.50;53.60
63013;DHT22;62113;45.624;11.700;2023-06-04T10:10:49;26.50;53.30
63013;DHT22;62113;45.624;11.700;2023-06-04T10:13:17;26.20;53.70
63013;DHT22;62113;45.624;11.700;2023-06-04T10:15:43;26.30;53.30
63013;DHT22;62113;45.624;11.700;2023-06-04T10:18:09;26.20;53.20
63013;DHT22;62113;45.624;11.700;2023-06-04T10:20:35;25.90;52.90
63013;DHT22;62113;45.624;11.700;2023-06-04T10:23:01;25.80;54.40
63013;DHT22;62113;45.624;11.700;2023-06-04T10:25:27;25.60;54.30
63013;DHT22;62113;45.624;11.700;2023-06-04T10:27:53;25.50;54.80
63013;DHT22;62113;45.624;11.700;2023-06-04T10:30:18;25.30;54.40
63013;DHT22;62113;45.624;11.700;2023-06-04T10:32:44;25.00;54.20
63013;DHT22;62113;45.624;11.700;2023-06-04T10:35:10;25.00;55.10
63013;DHT22;62113;45.624;11.700;2023-06-04T10:37:36;24.90;55.90
63013;DHT22;62113;45.624;11.700;2023-06-04T10:40:02;24.90;57.20
63013;DHT22;62113;45.624;11.700;2023-06-04T10:42:37;25.10;56.40
63013;DHT22;62113;45.624;11.700;2023-06-04T10:45:02;25.30;56.00
63013;DHT22;62113;45.624;11.700;2023-06-04T10:47:28;25.50;56.20
63013;DHT22;62113;45.624;11.700;2023-06-04T10:50:11;25.80;56.00
63013;DHT22;62113;45.624;11.700;2023-06-04T10:52:38;26.00;54.90
63013;DHT22;62113;45.624;11.700;2023-06-04T10:55:07;26.20;54.40
63013;DHT22;62113;45.624;11.700;2023-06-04T10:57:33;26.40;54.20
63013;DHT22;62113;45.624;11.700;2023-06-04T11:00:00;26.40;53.40
63013;DHT22;62113;45.624;11.700;2023-06-04T11:02:25;26.50;53.60
63013;DHT22;62113;45.624;11.700;2023-06-04T11:05:06;26.60;52.40
63013;DHT22;62113;45.624;11.700;2023-06-04T11:07:41;26.60;52.90
63013;DHT22;62113;45.624;11.700;2023-06-04T11:10:07;26.70;52.00
63013;DHT22;62113;45.624;11.700;2023-06-04T11:12:47;26.80;51.80
63013;DHT22;62113;45.624;11.700;2023-06-04T11:15:16;26.70;51.80
63013;DHT22;62113;45.624;11.700;2023-06-04T11:17:52;26.80;52.40
63013;DHT22;62113;45.624;11.700;2023-06-04T11:20:18;27.00;52.30
63013;DHT22;62113;45.624;11.700;2023-06-04T11:22:57;27.10;51.90
63013;DHT22;62113;45.624;11.700;2023-06-04T11:25:23;27.20;51.80
63013;DHT22;62113;45.624;11.700;2023-06-04T11:27:51;27.10;50.40
63013;DHT22;62113;45.624;11.700;2023-06-04T11:30:17;27.20;51.00
63013;DHT22;62113;45.624;11.700;2023-06-04T11:32:42;27.10;51.60
63013;DHT22;62113;45.624;11.700;2023-06-04T11:35:08;27.20;51.50
63013;DHT22;62113;45.624;11.700;2023-06-04T11:37:36;27.20;51.10
63013;DHT22;62113;45.624;11.700;2023-06-04T11:40:02;27.20;51.00
63013;DHT22;62113;45.624;11.700;2023-06-04T11:42:30;27.30;50.70
63013;DHT22;62113;45.624;11.700;2023-06-04T11:44:56;27.20;49.00
63013;DHT22;62113;45.624;11.700;2023-06-04T11:47:22;27.20;49.90
63013;DHT22;62113;45.624;11.700;2023-06-04T11:49:48;27.20;51.00
63013;DHT22;62113;45.624;11.700;2023-06-04T11:52:14;27.20;51.00
63013;DHT22;62113;45.624;11.700;2023-06-04T11:54:39;27.30;50.60
63013;DHT22;62113;45.624;11.700;2023-06-04T11:57:05;27.40;50.60
63013;DHT22;62113;45.624;11.700;2023-06-04T11:59:31;27.30;50.50
63013;DHT22;62113;45.624;11.700;2023-06-04T12:01:56;27.30;50.40
63013;DHT22;62113;45.624;11.700;2023-06-04T12:04:22;27.40;50.20
63013;DHT22;62113;45.624;11.700;2023-06-04T12:09:20;27.40;49.90
63013;DHT22;62113;45.624;11.700;2023-06-04T12:11:45;27.30;49.90
63013;DHT22;62113;45.624;11.700;2023-06-04T12:14:15;27.20;49.90
63013;DHT22;62113;45.624;11.700;2023-06-04T12:16:40;27.30;49.90
63013;DHT22;62113;45.624;11.700;2023-06-04T12:19:07;27.30;49.80
63013;DHT22;62113;45.624;11.700;2023-06-04T12:21:33;27.30;49.70
63013;DHT22;62113;45.624;11.700;2023-06-04T12:26:33;27.40;49.50
63013;DHT22;62113;45.624;11.700;2023-06-04T12:29:12;27.50;49.30
63013;DHT22;62113;45.624;11.700;2023-06-04T12:31:39;27.50;49.10
63013;DHT22;62113;45.624;11.700;2023-06-04T12:34:04;27.50;49.10
63013;DHT22;62113;45.624;11.700;2023-06-04T12:36:30;27.40;49.20
63013;DHT22;62113;45.624;11.700;2023-06-04T12:38:59;27.40;49.20
63013;DHT22;62113;45.624;11.700;2023-06-04T12:41:28;27.40;49.50
63013;DHT22;62113;45.624;11.700;2023-06-04T12:43:53;27.40;49.20
63013;DHT22;62113;45.624;11.700;2023-06-04T12:46:19;27.40;49.40
63013;DHT22;62113;45.624;11.700;2023-06-04T12:48:45;27.40;49.50
63013;DHT22;62113;45.624;11.700;2023-06-04T12:51:10;27.50;49.40
63013;DHT22;62113;45.624;11.700;2023-06-04T12:53:39;27.50;49.50
63013;DHT22;62113;45.624;11.700;2023-06-04T12:56:05;27.50;49.60
63013;DHT22;62113;45.624;11.700;2023-06-04T12:58:31;27.40;49.20
63013;DHT22;62113;45.624;11.700;2023-06-04T13:00:56;27.50;49.50
63013;DHT22;62113;45.624;11.700;2023-06-04T13:03:22;27.50;49.50
63013;DHT22;62113;45.624;11.700;2023-06-04T13:05:48;27.40;49.70
63013;DHT22;62113;45.624;11.700;2023-06-04T13:08:14;27.30;49.90
63013;DHT22;62113;45.624;11.700;2023-06-04T13:10:39;27.20;49.90
63013;DHT22;62113;45.624;11.700;2023-06-04T13:13:05;27.20;49.70
63013;DHT22;62113;45.624;11.700;2023-06-04T13:15:30;27.20;49.60
63013;DHT22;62113;45.624;11.700;2023-06-04T13:17:56;27.20;49.90
63013;DHT22;62113;45.624;11.700;2023-06-04T13:20:21;27.20;49.90
63013;DHT22;62113;45.624;11.700;2023-06-04T13:22:47;27.20;50.20
63013;DHT22;62113;45.624;11.700;2023-06-04T13:25:12;27.30;49.80
63013;DHT22;62113;45.624;11.700;2023-06-04T13:27:38;27.40;50.20
63013;DHT22;62113;45.624;11.700;2023-06-04T13:30:04;27.40;49.60
63013;DHT22;62113;45.624;11.700;2023-06-04T13:32:30;27.40;49.60
63013;DHT22;62113;45.624;11.700;2023-06-04T13:34:56;27.50;50.90
63013;DHT22;62113;45.624;11.700;2023-06-04T13:37:22;27.40;49.60
63013;DHT22;62113;45.624;11.700;2023-06-04T13:39:47;27.50;49.60
63013;DHT22;62113;45.624;11.700;2023-06-04T13:42:13;27.50;49.70
63013;DHT22;62113;45.624;11.700;2023-06-04T13:44:38;27.50;49.80
63013;DHT22;62113;45.624;11.700;2023-06-04T13:47:04;27.40;49.60
63013;DHT22;62113;45.624;11.700;2023-06-04T13:49:32;27.30;49.30
63013;DHT22;62113;45.624;11.700;2023-06-04T13:51:57;27.40;49.70
63013;DHT22;62113;45.624;11.700;2023-06-04T13:54:23;27.40;49.60
63013;DHT22;62113;45.624;11.700;2023-06-04T13:56:48;27.40;49.70
63013;DHT22;62113;45.624;11.700;2023-06-04T13:59:14;27.50;49.80
63013;DHT22;62113;45.624;11.700;2023-06-04T14:01:39;27.40;49.90
63013;DHT22;62113;45.624;11.700;2023-06-04T14:04:05;27.50;49.80
63013;DHT22;62113;45.624;11.700;2023-06-04T14:06:32;27.60;49.80
63013;DHT22;62113;45.624;11.700;2023-06-04T14:08:57;27.60;49.60
63013;DHT22;62113;45.624;11.700;2023-06-04T14:11:23;27.70;49.60
63013;DHT22;62113;45.624;11.700;2023-06-04T14:13:48;27.80;49.50
63013;DHT22;62113;45.624;11.700;2023-06-04T14:16:14;27.80;49.40
63013;DHT22;62113;45.624;11.700;2023-06-04T14:18:39;27.80;49.30
63013;DHT22;62113;45.624;11.700;2023-06-04T14:21:05;27.90;49.10
63013;DHT22;62113;45.624;11.700;2023-06-04T14:23:31;28.00;48.90
63013;DHT22;62113;45.624;11.700;2023-06-04T14:25:56;28.00;49.00
63013;DHT22;62113;45.624;11.700;2023-06-04T14:28:22;28.00;48.70
63013;DHT22;62113;45.624;11.700;2023-06-04T14:30:48;28.00;48.60
63013;DHT22;62113;45.624;11.700;2023-06-04T14:33:13;28.00;48.70
63013;DHT22;62113;45.624;11.700;2023-06-04T14:35:39;28.00;48.70
63013;DHT22;62113;45.624;11.700;2023-06-04T14:38:09;28.00;48.30
63013;DHT22;62113;45.624;11.700;2023-06-04T14:40:34;28.00;49.10
63013;DHT22;62113;45.624;11.700;2023-06-04T14:43:01;28.00;49.20
63013;DHT22;62113;45.624;11.700;2023-06-04T14:45:26;27.70;48.30
63013;DHT22;62113;45.624;11.700;2023-06-04T14:47:51;27.70;48.90
63013;DHT22;62113;45.624;11.700;2023-06-04T14:50:17;27.50;48.70
63013;DHT22;62113;45.624;11.700;2023-06-04T14:52:44;27.50;49.60
63013;DHT22;62113;45.624;11.700;2023-06-04T14:55:09;27.60;50.10
63013;DHT22;62113;45.624;11.700;2023-06-04T14:57:35;27.50;49.90
63013;DHT22;62113;45.624;11.700;2023-06-04T15:00:00;27.40;48.50
63013;DHT22;62113;45.624;11.700;2023-06-04T15:02:27;27.40;50.40
63013;DHT22;62113;45.624;11.700;2023-06-04T15:04:55;27.40;49.80
63013;DHT22;62113;45.624;11.700;2023-06-04T15:07:21;27.40;49.90
63013;DHT22;62113;45.624;11.700;2023-06-04T15:09:46;27.50;50.00
63013;DHT22;62113;45.624;11.700;2023-06-04T15:12:13;27.50;50.00
63013;DHT22;62113;45.624;11.700;2023-06-04T15:14:40;27.50;49.80
63013;DHT22;62113;45.624;11.700;2023-06-04T15:17:05;27.60;49.80
63013;DHT22;62113;45.624;11.700;2023-06-04T15:19:32;27.50;50.10
63013;DHT22;62113;45.624;11.700;2023-06-04T15:21:57;27.50;50.20